VAF230 KFLL-MKJP
Flight info
| Callsign | VAF230 |
|---|---|
| Flight time | 1h 26m |
| Altitude | 35000 |
| Route | REGAE2 URSUS UP406 BILSI UL795 BOPOL UR625 NEFTU UP525 EMABU UA301 IMADI DCT SAVEM |
| Aircraft | B738/M-SDE2E3FGHIRWXY/LB1 |
Departure
| Time | 2026-05-03 20:32 |
|---|---|
| Airport | Fort Lauderdale Hollywood International Airport (KFLL) |
Arrival
| Time | 2026-05-03 21:59 |
|---|---|
| Airport | Norman Manley International Airport (MKJP) |
| Time | Latitude | Longitude | Altitude | Speed | Heading |
|---|---|---|---|---|---|
| 2026-05-03 20:15 | 26.06893 | -80.14331 | 17 ft | 0 kts | 0° |
| 2026-05-03 20:18 | 26.06883 | -80.14331 | 17 ft | 4 kts | 1° |
| 2026-05-03 20:18 | 26.06858 | -80.14333 | 17 ft | 4 kts | 357° |
| 2026-05-03 20:18 | 26.06838 | -80.14324 | 17 ft | 4 kts | 315° |
| 2026-05-03 20:18 | 26.06827 | -80.14300 | 17 ft | 4 kts | 272° |
| 2026-05-03 20:19 | 26.06827 | -80.14281 | 17 ft | 1 kts | 270° |
| 2026-05-03 20:19 | 26.06827 | -80.14279 | 17 ft | 0 kts | 270° |
| 2026-05-03 20:20 | 26.06827 | -80.14291 | 17 ft | 6 kts | 270° |
| 2026-05-03 20:20 | 26.06828 | -80.14382 | 17 ft | 16 kts | 270° |
| 2026-05-03 20:21 | 26.06829 | -80.14500 | 17 ft | 12 kts | 270° |
| 2026-05-03 20:21 | 26.06819 | -80.14562 | 17 ft | 5 kts | 244° |
| 2026-05-03 20:21 | 26.06801 | -80.14591 | 17 ft | 5 kts | 226° |
| 2026-05-03 20:21 | 26.06776 | -80.14634 | 17 ft | 8 kts | 258° |
| 2026-05-03 20:22 | 26.06772 | -80.14702 | 17 ft | 10 kts | 269° |
| 2026-05-03 20:22 | 26.06771 | -80.14788 | 17 ft | 12 kts | 269° |
| 2026-05-03 20:22 | 26.06772 | -80.14891 | 17 ft | 14 kts | 271° |
| 2026-05-03 20:22 | 26.06776 | -80.15008 | 17 ft | 16 kts | 272° |
| 2026-05-03 20:23 | 26.06777 | -80.15142 | 17 ft | 18 kts | 270° |
| 2026-05-03 20:23 | 26.06778 | -80.15287 | 17 ft | 20 kts | 271° |
| 2026-05-03 20:23 | 26.06780 | -80.15442 | 17 ft | 21 kts | 271° |
| 2026-05-03 20:23 | 26.06749 | -80.15558 | 17 ft | 12 kts | 198° |
| 2026-05-03 20:24 | 26.06704 | -80.15587 | 17 ft | 5 kts | 253° |
| 2026-05-03 20:24 | 26.06703 | -80.15642 | 17 ft | 10 kts | 270° |
| 2026-05-03 20:24 | 26.06704 | -80.15744 | 17 ft | 16 kts | 270° |
| 2026-05-03 20:24 | 26.06705 | -80.15855 | 17 ft | 11 kts | 270° |
| 2026-05-03 20:25 | 26.06696 | -80.15912 | 17 ft | 4 kts | 231° |
| 2026-05-03 20:25 | 26.06688 | -80.15924 | 17 ft | 0 kts | 231° |
| 2026-05-03 20:28 | 26.06656 | -80.15934 | 17 ft | 8 kts | 182° |
| 2026-05-03 20:28 | 26.06606 | -80.15924 | 17 ft | 6 kts | 129° |
| 2026-05-03 20:29 | 26.06600 | -80.15903 | 17 ft | 0 kts | 90° |
| 2026-05-03 20:31 | 26.06600 | -80.15897 | 17 ft | 5 kts | 90° |
| 2026-05-03 20:31 | 26.06599 | -80.15677 | 17 ft | 60 kts | 91° |
| 2026-05-03 20:31 | 26.06591 | -80.14979 | 17 ft | 120 kts | 91° |
| 2026-05-03 20:31 | 26.06584 | -80.13852 | 47 ft | 169 kts | 89° |
| 2026-05-03 20:32 | 26.06584 | -80.12470 | 539 ft | 183 kts | 88° |
| 2026-05-03 20:32 | 26.06579 | -80.11054 | 1402 ft | 182 kts | 88° |
| 2026-05-03 20:32 | 26.06600 | -80.09629 | 2097 ft | 190 kts | 88° |
| 2026-05-03 20:32 | 26.06624 | -80.08068 | 2446 ft | 214 kts | 88° |
| 2026-05-03 20:33 | 26.06649 | -80.06327 | 2756 ft | 236 kts | 88° |
| 2026-05-03 20:33 | 26.06676 | -80.04437 | 3208 ft | 253 kts | 88° |
| 2026-05-03 20:33 | 26.06704 | -80.02432 | 3725 ft | 266 kts | 88° |
| 2026-05-03 20:33 | 26.06728 | -80.00321 | 3957 ft | 277 kts | 88° |
| 2026-05-03 20:34 | 26.06715 | -79.98171 | 3970 ft | 278 kts | 89° |
| 2026-05-03 20:34 | 26.06693 | -79.96005 | 3974 ft | 281 kts | 90° |
| 2026-05-03 20:34 | 26.06670 | -79.93837 | 3974 ft | 280 kts | 90° |
| 2026-05-03 20:34 | 26.06647 | -79.91676 | 3977 ft | 278 kts | 90° |
| 2026-05-03 20:35 | 26.06624 | -79.89525 | 4012 ft | 278 kts | 90° |
| 2026-05-03 20:35 | 26.06601 | -79.87353 | 4604 ft | 281 kts | 90° |
| 2026-05-03 20:35 | 26.06579 | -79.85166 | 5356 ft | 284 kts | 91° |
| 2026-05-03 20:35 | 26.06520 | -79.82981 | 6039 ft | 288 kts | 95° |
| 2026-05-03 20:36 | 26.06259 | -79.80737 | 6741 ft | 291 kts | 100° |
| 2026-05-03 20:36 | 26.05901 | -79.78507 | 7397 ft | 295 kts | 102° |
| 2026-05-03 20:36 | 26.05532 | -79.76279 | 8041 ft | 299 kts | 102° |
| 2026-05-03 20:36 | 26.05159 | -79.73990 | 8690 ft | 303 kts | 102° |
| 2026-05-03 20:37 | 26.04789 | -79.71665 | 9318 ft | 307 kts | 102° |
| 2026-05-03 20:37 | 26.04416 | -79.69306 | 9938 ft | 312 kts | 102° |
| 2026-05-03 20:37 | 26.04039 | -79.66911 | 10484 ft | 319 kts | 102° |
| 2026-05-03 20:37 | 26.03641 | -79.64437 | 10834 ft | 333 kts | 103° |
| 2026-05-03 20:38 | 26.03095 | -79.61861 | 11069 ft | 350 kts | 107° |
| 2026-05-03 20:38 | 26.02429 | -79.59196 | 11289 ft | 366 kts | 108° |
| 2026-05-03 20:38 | 26.01723 | -79.56419 | 11566 ft | 379 kts | 108° |
| 2026-05-03 20:38 | 26.01020 | -79.53564 | 12045 ft | 385 kts | 108° |
| 2026-05-03 20:39 | 25.99987 | -79.50825 | 12582 ft | 384 kts | 124° |
| 2026-05-03 20:39 | 25.98296 | -79.48567 | 12892 ft | 380 kts | 142° |
| 2026-05-03 20:39 | 25.96107 | -79.46992 | 12958 ft | 373 kts | 160° |
| 2026-05-03 20:39 | 25.93633 | -79.46262 | 12976 ft | 364 kts | 179° |
| 2026-05-03 20:40 | 25.91124 | -79.46364 | 12979 ft | 359 kts | 189° |
| 2026-05-03 20:40 | 25.88611 | -79.46371 | 12972 ft | 366 kts | 176° |
| 2026-05-03 20:40 | 25.86076 | -79.45897 | 13402 ft | 369 kts | 179° |
| 2026-05-03 20:40 | 25.83552 | -79.46113 | 14054 ft | 362 kts | 197° |
| 2026-05-03 20:41 | 25.81225 | -79.47130 | 14661 ft | 359 kts | 210° |
| 2026-05-03 20:41 | 25.79778 | -79.48019 | 15040 ft | 360 kts | 212° |
| 2026-05-03 20:41 | 25.77611 | -79.49429 | 15597 ft | 362 kts | 214° |
| 2026-05-03 20:41 | 25.75487 | -79.50940 | 16139 ft | 364 kts | 216° |
| 2026-05-03 20:42 | 25.72682 | -79.53002 | 16829 ft | 367 kts | 216° |
| 2026-05-03 20:42 | 25.70531 | -79.54568 | 17259 ft | 372 kts | 216° |
| 2026-05-03 20:42 | 25.68363 | -79.56145 | 17756 ft | 374 kts | 217° |
| 2026-05-03 20:42 | 25.66912 | -79.57255 | 18077 ft | 375 kts | 219° |
| 2026-05-03 20:43 | 25.64858 | -79.58979 | 18555 ft | 376 kts | 221° |
| 2026-05-03 20:43 | 25.62811 | -79.60793 | 19000 ft | 378 kts | 223° |
| 2026-05-03 20:43 | 25.60761 | -79.62637 | 19436 ft | 380 kts | 223° |
| 2026-05-03 20:43 | 25.58699 | -79.64485 | 19879 ft | 382 kts | 223° |
| 2026-05-03 20:44 | 25.56620 | -79.66334 | 20311 ft | 384 kts | 223° |
| 2026-05-03 20:44 | 25.54524 | -79.68185 | 20731 ft | 386 kts | 223° |
| 2026-05-03 20:44 | 25.52420 | -79.70037 | 21132 ft | 387 kts | 223° |
| 2026-05-03 20:44 | 25.50306 | -79.71891 | 21525 ft | 389 kts | 222° |
| 2026-05-03 20:45 | 25.48173 | -79.73758 | 21884 ft | 391 kts | 222° |
| 2026-05-03 20:45 | 25.46034 | -79.75627 | 22255 ft | 393 kts | 222° |
| 2026-05-03 20:45 | 25.43888 | -79.77500 | 22647 ft | 393 kts | 222° |
| 2026-05-03 20:45 | 25.41729 | -79.79384 | 22987 ft | 395 kts | 222° |
| 2026-05-03 20:46 | 25.39548 | -79.81251 | 23314 ft | 399 kts | 218° |
| 2026-05-03 20:46 | 25.37023 | -79.82596 | 23630 ft | 411 kts | 202° |
| 2026-05-03 20:46 | 25.34193 | -79.83088 | 23923 ft | 425 kts | 186° |
| 2026-05-03 20:46 | 25.31205 | -79.82757 | 24218 ft | 436 kts | 176° |
| 2026-05-03 20:47 | 25.28214 | -79.82140 | 24500 ft | 439 kts | 175° |
| 2026-05-03 20:47 | 25.25223 | -79.81390 | 24779 ft | 443 kts | 172° |
| 2026-05-03 20:47 | 25.22239 | -79.80511 | 25047 ft | 446 kts | 171° |
| 2026-05-03 20:47 | 25.19248 | -79.79564 | 25279 ft | 449 kts | 170° |
| 2026-05-03 20:48 | 25.16234 | -79.78590 | 25502 ft | 451 kts | 169° |
| 2026-05-03 20:48 | 25.13223 | -79.77620 | 25780 ft | 452 kts | 169° |
| 2026-05-03 20:48 | 25.10204 | -79.76654 | 26055 ft | 452 kts | 170° |
| 2026-05-03 20:48 | 25.07174 | -79.75686 | 26287 ft | 454 kts | 170° |
| 2026-05-03 20:49 | 25.04139 | -79.74718 | 26510 ft | 455 kts | 170° |
| 2026-05-03 20:49 | 25.01082 | -79.73744 | 26731 ft | 457 kts | 170° |
| 2026-05-03 20:49 | 24.98024 | -79.72771 | 26972 ft | 458 kts | 170° |
| 2026-05-03 20:49 | 24.94970 | -79.71799 | 27196 ft | 459 kts | 170° |
| 2026-05-03 20:50 | 24.91950 | -79.70776 | 27454 ft | 461 kts | 166° |
| 2026-05-03 20:50 | 24.88955 | -79.69460 | 27655 ft | 467 kts | 161° |
| 2026-05-03 20:50 | 24.86046 | -79.67825 | 27853 ft | 472 kts | 156° |
| 2026-05-03 20:50 | 24.83226 | -79.65942 | 28050 ft | 476 kts | 153° |
| 2026-05-03 20:51 | 24.80434 | -79.63954 | 28245 ft | 477 kts | 153° |
| 2026-05-03 20:51 | 24.77637 | -79.61957 | 28433 ft | 478 kts | 153° |
| 2026-05-03 20:51 | 24.74838 | -79.59969 | 28616 ft | 479 kts | 153° |
| 2026-05-03 20:51 | 24.72064 | -79.58007 | 28792 ft | 480 kts | 153° |
| 2026-05-03 20:52 | 24.69245 | -79.56023 | 28924 ft | 482 kts | 153° |
| 2026-05-03 20:52 | 24.66418 | -79.54030 | 29067 ft | 484 kts | 152° |
| 2026-05-03 20:52 | 24.63582 | -79.52035 | 29276 ft | 484 kts | 152° |
| 2026-05-03 20:52 | 24.60739 | -79.50037 | 29474 ft | 484 kts | 153° |
| 2026-05-03 20:53 | 24.57908 | -79.48042 | 29616 ft | 485 kts | 153° |
| 2026-05-03 20:53 | 24.55062 | -79.46033 | 29847 ft | 485 kts | 153° |
| 2026-05-03 20:53 | 24.52229 | -79.44041 | 30121 ft | 483 kts | 153° |
| 2026-05-03 20:53 | 24.49394 | -79.42052 | 30353 ft | 483 kts | 153° |
| 2026-05-03 20:54 | 24.46563 | -79.40069 | 30596 ft | 482 kts | 153° |
| 2026-05-03 20:54 | 24.40947 | -79.36141 | 31049 ft | 481 kts | 153° |
| 2026-05-03 20:54 | 24.38107 | -79.34138 | 31079 ft | 486 kts | 154° |
| 2026-05-03 20:55 | 24.35273 | -79.32188 | 31699 ft | 475 kts | 153° |
| 2026-05-03 20:55 | 24.32493 | -79.30244 | 32068 ft | 472 kts | 153° |
| 2026-05-03 20:55 | 24.29712 | -79.28287 | 32172 ft | 476 kts | 153° |
| 2026-05-03 20:55 | 24.26938 | -79.26297 | 32323 ft | 477 kts | 152° |
| 2026-05-03 20:56 | 24.24197 | -79.24322 | 32575 ft | 476 kts | 152° |
| 2026-05-03 20:56 | 24.21431 | -79.22334 | 32896 ft | 472 kts | 152° |
| 2026-05-03 20:56 | 24.18716 | -79.20386 | 33463 ft | 464 kts | 153° |
| 2026-05-03 20:56 | 24.16005 | -79.18444 | 33631 ft | 465 kts | 153° |
| 2026-05-03 20:57 | 24.10557 | -79.14545 | 33901 ft | 468 kts | 153° |
| 2026-05-03 20:57 | 24.07825 | -79.12592 | 34134 ft | 467 kts | 153° |
| 2026-05-03 20:57 | 24.05098 | -79.10643 | 34244 ft | 470 kts | 153° |
| 2026-05-03 20:58 | 24.02290 | -79.08831 | 34436 ft | 464 kts | 159° |
| 2026-05-03 20:58 | 23.99418 | -79.07200 | 34666 ft | 466 kts | 156° |
| 2026-05-03 20:58 | 23.96647 | -79.05453 | 34850 ft | 467 kts | 155° |
| 2026-05-03 20:58 | 23.93842 | -79.03638 | 35034 ft | 468 kts | 155° |
| 2026-05-03 20:59 | 23.88220 | -78.99999 | 35039 ft | 469 kts | 155° |
| 2026-05-03 20:59 | 23.82615 | -78.96377 | 35043 ft | 467 kts | 155° |
| 2026-05-03 21:00 | 23.77965 | -78.93375 | 35044 ft | 467 kts | 155° |
| 2026-05-03 21:00 | 23.71452 | -78.89176 | 35044 ft | 467 kts | 155° |
| 2026-05-03 21:01 | 23.65834 | -78.85537 | 35044 ft | 469 kts | 155° |
| 2026-05-03 21:01 | 23.60249 | -78.81927 | 35043 ft | 469 kts | 155° |
| 2026-05-03 21:02 | 23.54628 | -78.78302 | 35044 ft | 469 kts | 155° |
| 2026-05-03 21:02 | 23.49006 | -78.74683 | 35044 ft | 469 kts | 155° |
| 2026-05-03 21:03 | 23.43381 | -78.71066 | 35044 ft | 470 kts | 155° |
| 2026-05-03 21:03 | 23.37743 | -78.67445 | 35045 ft | 470 kts | 155° |
| 2026-05-03 21:04 | 23.32112 | -78.63833 | 35047 ft | 470 kts | 155° |
| 2026-05-03 21:04 | 23.26514 | -78.60246 | 35045 ft | 470 kts | 155° |
| 2026-05-03 21:05 | 23.20878 | -78.56639 | 35028 ft | 471 kts | 155° |
| 2026-05-03 21:05 | 23.15214 | -78.53016 | 35015 ft | 473 kts | 155° |
| 2026-05-03 21:06 | 23.09535 | -78.49388 | 35004 ft | 473 kts | 155° |
| 2026-05-03 21:06 | 23.03864 | -78.45770 | 34998 ft | 473 kts | 155° |
| 2026-05-03 21:07 | 22.98187 | -78.42149 | 34994 ft | 474 kts | 155° |
| 2026-05-03 21:07 | 22.92525 | -78.38543 | 34994 ft | 474 kts | 155° |
| 2026-05-03 21:08 | 22.86825 | -78.34916 | 34994 ft | 474 kts | 155° |
| 2026-05-03 21:08 | 22.81131 | -78.31295 | 34994 ft | 474 kts | 155° |
| 2026-05-03 21:09 | 22.75433 | -78.27677 | 34994 ft | 474 kts | 155° |
| 2026-05-03 21:09 | 22.69739 | -78.24063 | 34994 ft | 474 kts | 155° |
| 2026-05-03 21:10 | 22.64086 | -78.20481 | 34994 ft | 472 kts | 155° |
| 2026-05-03 21:10 | 22.58414 | -78.16888 | 34994 ft | 472 kts | 155° |
| 2026-05-03 21:11 | 22.52740 | -78.13298 | 34994 ft | 472 kts | 155° |
| 2026-05-03 21:11 | 22.47064 | -78.09710 | 34994 ft | 472 kts | 155° |
| 2026-05-03 21:12 | 22.41425 | -78.06148 | 34994 ft | 472 kts | 155° |
| 2026-05-03 21:12 | 22.35752 | -78.02568 | 34994 ft | 472 kts | 155° |
| 2026-05-03 21:13 | 22.30073 | -77.98988 | 34994 ft | 473 kts | 155° |
| 2026-05-03 21:13 | 22.24292 | -77.95614 | 34994 ft | 468 kts | 162° |
| 2026-05-03 21:14 | 22.18148 | -77.93625 | 34995 ft | 457 kts | 174° |
| 2026-05-03 21:14 | 22.11888 | -77.92487 | 34994 ft | 456 kts | 176° |
| 2026-05-03 21:15 | 22.05667 | -77.91406 | 34997 ft | 455 kts | 175° |
| 2026-05-03 21:15 | 21.99410 | -77.90318 | 34997 ft | 455 kts | 175° |
| 2026-05-03 21:16 | 21.93145 | -77.89229 | 34997 ft | 455 kts | 175° |
| 2026-05-03 21:16 | 21.86929 | -77.88149 | 34997 ft | 455 kts | 175° |
| 2026-05-03 21:17 | 21.81693 | -77.87270 | 34997 ft | 454 kts | 176° |
| 2026-05-03 21:17 | 21.74399 | -77.86092 | 34996 ft | 456 kts | 176° |
| 2026-05-03 21:18 | 21.68128 | -77.85049 | 34996 ft | 455 kts | 175° |
| 2026-05-03 21:18 | 21.61927 | -77.83998 | 34996 ft | 454 kts | 175° |
| 2026-05-03 21:19 | 21.55685 | -77.82945 | 34995 ft | 454 kts | 175° |
| 2026-05-03 21:19 | 21.49440 | -77.81886 | 34995 ft | 454 kts | 175° |
| 2026-05-03 21:20 | 21.43202 | -77.80821 | 34996 ft | 453 kts | 175° |
| 2026-05-03 21:20 | 21.36964 | -77.79752 | 34997 ft | 454 kts | 175° |
| 2026-05-03 21:21 | 21.30732 | -77.78685 | 34992 ft | 454 kts | 175° |
| 2026-05-03 21:21 | 21.24498 | -77.77619 | 34999 ft | 454 kts | 175° |
| 2026-05-03 21:22 | 21.18248 | -77.76553 | 35001 ft | 455 kts | 175° |
| 2026-05-03 21:22 | 21.11991 | -77.75485 | 35000 ft | 455 kts | 175° |
| 2026-05-03 21:23 | 21.05787 | -77.74428 | 35005 ft | 455 kts | 175° |
| 2026-05-03 21:23 | 20.99522 | -77.73362 | 35006 ft | 456 kts | 175° |
| 2026-05-03 21:24 | 20.93255 | -77.72298 | 35006 ft | 456 kts | 175° |
| 2026-05-03 21:24 | 20.86987 | -77.71234 | 35012 ft | 457 kts | 175° |
| 2026-05-03 21:25 | 20.80709 | -77.70171 | 34991 ft | 456 kts | 174° |
| 2026-05-03 21:25 | 20.74448 | -77.69115 | 34980 ft | 455 kts | 174° |
| 2026-05-03 21:26 | 20.68217 | -77.68066 | 34973 ft | 456 kts | 174° |
| 2026-05-03 21:26 | 20.61940 | -77.67009 | 34974 ft | 456 kts | 174° |
| 2026-05-03 21:27 | 20.55661 | -77.66016 | 34975 ft | 456 kts | 174° |
| 2026-05-03 21:27 | 20.49417 | -77.65026 | 34971 ft | 456 kts | 175° |
| 2026-05-03 21:28 | 20.43141 | -77.64010 | 34971 ft | 455 kts | 175° |
| 2026-05-03 21:28 | 20.36865 | -77.62999 | 34969 ft | 456 kts | 175° |
| 2026-05-03 21:29 | 20.30580 | -77.62033 | 34966 ft | 457 kts | 173° |
| 2026-05-03 21:29 | 20.24301 | -77.61051 | 34966 ft | 456 kts | 175° |
| 2026-05-03 21:30 | 20.18076 | -77.60034 | 34964 ft | 455 kts | 175° |
| 2026-05-03 21:30 | 20.11803 | -77.59039 | 34965 ft | 456 kts | 173° |
| 2026-05-03 21:31 | 20.05553 | -77.57881 | 34964 ft | 455 kts | 173° |
| 2026-05-03 21:31 | 19.99305 | -77.56719 | 34770 ft | 453 kts | 173° |
| 2026-05-03 21:32 | 19.96252 | -77.56152 | 34720 ft | 438 kts | 173° |
| 2026-05-03 21:32 | 19.93330 | -77.55610 | 34716 ft | 425 kts | 173° |
| 2026-05-03 21:32 | 19.87440 | -77.54517 | 34719 ft | 435 kts | 173° |
| 2026-05-03 21:33 | 19.84420 | -77.53958 | 34450 ft | 446 kts | 173° |
| 2026-05-03 21:33 | 19.81321 | -77.53384 | 33973 ft | 457 kts | 172° |
| 2026-05-03 21:33 | 19.79203 | -77.52989 | 33642 ft | 455 kts | 172° |
| 2026-05-03 21:33 | 19.76103 | -77.52413 | 33157 ft | 450 kts | 172° |
| 2026-05-03 21:34 | 19.73028 | -77.51843 | 32678 ft | 445 kts | 172° |
| 2026-05-03 21:34 | 19.70035 | -77.51288 | 32214 ft | 441 kts | 172° |
| 2026-05-03 21:34 | 19.67024 | -77.50731 | 31746 ft | 437 kts | 172° |
| 2026-05-03 21:34 | 19.64035 | -77.50178 | 31283 ft | 434 kts | 171° |
| 2026-05-03 21:35 | 19.61077 | -77.49631 | 30826 ft | 430 kts | 171° |
| 2026-05-03 21:35 | 19.58135 | -77.49088 | 30371 ft | 427 kts | 171° |
| 2026-05-03 21:35 | 19.55223 | -77.48550 | 29920 ft | 424 kts | 171° |
| 2026-05-03 21:35 | 19.52328 | -77.48015 | 29475 ft | 421 kts | 171° |
| 2026-05-03 21:36 | 19.49466 | -77.47426 | 29069 ft | 417 kts | 167° |
| 2026-05-03 21:36 | 19.46679 | -77.46574 | 28611 ft | 416 kts | 163° |
| 2026-05-03 21:36 | 19.43942 | -77.45592 | 28153 ft | 414 kts | 162° |
| 2026-05-03 21:36 | 19.41229 | -77.44587 | 27705 ft | 411 kts | 161° |
| 2026-05-03 21:37 | 19.38563 | -77.43602 | 27266 ft | 409 kts | 161° |
| 2026-05-03 21:37 | 19.35883 | -77.42616 | 26827 ft | 406 kts | 161° |
| 2026-05-03 21:37 | 19.33189 | -77.41626 | 26389 ft | 404 kts | 161° |
| 2026-05-03 21:37 | 19.30572 | -77.40666 | 25963 ft | 401 kts | 162° |
| 2026-05-03 21:38 | 19.27945 | -77.39704 | 25536 ft | 398 kts | 162° |
| 2026-05-03 21:38 | 19.25338 | -77.38748 | 25111 ft | 396 kts | 161° |
| 2026-05-03 21:38 | 19.22740 | -77.37794 | 24689 ft | 393 kts | 161° |
| 2026-05-03 21:38 | 19.20161 | -77.36850 | 24269 ft | 391 kts | 161° |
| 2026-05-03 21:39 | 19.17603 | -77.35914 | 23854 ft | 389 kts | 161° |
| 2026-05-03 21:39 | 19.15058 | -77.34984 | 23439 ft | 386 kts | 161° |
| 2026-05-03 21:39 | 19.12522 | -77.34059 | 23027 ft | 384 kts | 161° |
| 2026-05-03 21:39 | 19.10001 | -77.33139 | 22607 ft | 381 kts | 161° |
| 2026-05-03 21:40 | 19.07494 | -77.32225 | 22173 ft | 380 kts | 161° |
| 2026-05-03 21:40 | 19.04993 | -77.31313 | 21752 ft | 379 kts | 161° |
| 2026-05-03 21:40 | 19.02501 | -77.30405 | 21338 ft | 377 kts | 161° |
| 2026-05-03 21:40 | 19.00053 | -77.29514 | 20933 ft | 375 kts | 161° |
| 2026-05-03 21:41 | 18.97591 | -77.28618 | 20528 ft | 373 kts | 161° |
| 2026-05-03 21:41 | 18.95150 | -77.27687 | 20125 ft | 371 kts | 159° |
| 2026-05-03 21:41 | 18.92779 | -77.26607 | 19725 ft | 369 kts | 156° |
| 2026-05-03 21:41 | 18.90456 | -77.25456 | 19327 ft | 368 kts | 155° |
| 2026-05-03 21:42 | 18.88154 | -77.24287 | 18931 ft | 366 kts | 155° |
| 2026-05-03 21:42 | 18.85867 | -77.23134 | 18538 ft | 364 kts | 155° |
| 2026-05-03 21:42 | 18.83611 | -77.22004 | 18152 ft | 361 kts | 155° |
| 2026-05-03 21:42 | 18.81340 | -77.20872 | 17763 ft | 359 kts | 155° |
| 2026-05-03 21:43 | 18.79079 | -77.19751 | 17376 ft | 358 kts | 155° |
| 2026-05-03 21:43 | 18.76829 | -77.18637 | 16988 ft | 356 kts | 155° |
| 2026-05-03 21:43 | 18.74588 | -77.17531 | 16606 ft | 354 kts | 155° |
| 2026-05-03 21:43 | 18.72364 | -77.16431 | 16224 ft | 352 kts | 155° |
| 2026-05-03 21:44 | 18.70152 | -77.15337 | 15846 ft | 351 kts | 155° |
| 2026-05-03 21:44 | 18.67938 | -77.14245 | 15335 ft | 353 kts | 155° |
| 2026-05-03 21:44 | 18.65709 | -77.13147 | 14979 ft | 350 kts | 155° |
| 2026-05-03 21:44 | 18.63551 | -77.12087 | 14720 ft | 345 kts | 155° |
| 2026-05-03 21:45 | 18.61378 | -77.11019 | 14360 ft | 344 kts | 154° |
| 2026-05-03 21:45 | 18.59215 | -77.09957 | 13995 ft | 342 kts | 154° |
| 2026-05-03 21:45 | 18.57065 | -77.08902 | 13632 ft | 340 kts | 154° |
| 2026-05-03 21:45 | 18.54927 | -77.07854 | 13267 ft | 338 kts | 154° |
| 2026-05-03 21:46 | 18.52801 | -77.06811 | 12900 ft | 334 kts | 154° |
| 2026-05-03 21:46 | 18.50713 | -77.05788 | 12545 ft | 326 kts | 154° |
| 2026-05-03 21:46 | 18.48681 | -77.04792 | 12198 ft | 318 kts | 154° |
| 2026-05-03 21:46 | 18.46720 | -77.03832 | 11863 ft | 311 kts | 154° |
| 2026-05-03 21:47 | 18.44783 | -77.02883 | 11533 ft | 304 kts | 154° |
| 2026-05-03 21:47 | 18.42883 | -77.01958 | 11208 ft | 298 kts | 155° |
| 2026-05-03 21:47 | 18.41018 | -77.01053 | 10890 ft | 292 kts | 155° |
| 2026-05-03 21:47 | 18.39179 | -77.00162 | 10589 ft | 290 kts | 155° |
| 2026-05-03 21:48 | 18.37351 | -76.99275 | 10295 ft | 287 kts | 155° |
| 2026-05-03 21:48 | 18.35571 | -76.98414 | 9996 ft | 282 kts | 155° |
| 2026-05-03 21:48 | 18.33776 | -76.97544 | 9673 ft | 279 kts | 155° |
| 2026-05-03 21:48 | 18.32022 | -76.96696 | 9366 ft | 277 kts | 155° |
| 2026-05-03 21:49 | 18.30295 | -76.95860 | 9066 ft | 276 kts | 155° |
| 2026-05-03 21:49 | 18.28553 | -76.95017 | 8766 ft | 274 kts | 155° |
| 2026-05-03 21:49 | 18.26845 | -76.94191 | 8472 ft | 267 kts | 155° |
| 2026-05-03 21:49 | 18.25180 | -76.93406 | 8184 ft | 260 kts | 159° |
| 2026-05-03 21:50 | 18.23575 | -76.93118 | 7919 ft | 256 kts | 179° |
| 2026-05-03 21:50 | 18.21842 | -76.93472 | 7627 ft | 253 kts | 196° |
| 2026-05-03 21:50 | 18.20238 | -76.94212 | 7345 ft | 251 kts | 208° |
| 2026-05-03 21:50 | 18.18861 | -76.95324 | 7062 ft | 252 kts | 227° |
| 2026-05-03 21:51 | 18.17866 | -76.96842 | 6826 ft | 252 kts | 235° |
| 2026-05-03 21:51 | 18.16807 | -76.98272 | 6692 ft | 249 kts | 227° |
| 2026-05-03 21:51 | 18.15619 | -76.99584 | 6577 ft | 249 kts | 224° |
| 2026-05-03 21:51 | 18.14256 | -77.00755 | 6131 ft | 258 kts | 215° |
| 2026-05-03 21:52 | 18.12792 | -77.01846 | 5785 ft | 255 kts | 215° |
| 2026-05-03 21:52 | 18.11358 | -77.02919 | 5552 ft | 250 kts | 215° |
| 2026-05-03 21:52 | 18.09950 | -77.03981 | 5506 ft | 250 kts | 213° |
| 2026-05-03 21:52 | 18.08365 | -77.04644 | 5389 ft | 245 kts | 184° |
| 2026-05-03 21:53 | 18.06743 | -77.04293 | 5305 ft | 239 kts | 155° |
| 2026-05-03 21:53 | 18.05349 | -77.03271 | 4830 ft | 247 kts | 137° |
| 2026-05-03 21:53 | 18.04254 | -77.01938 | 4492 ft | 241 kts | 124° |
| 2026-05-03 21:53 | 18.03374 | -77.00483 | 4176 ft | 231 kts | 121° |
| 2026-05-03 21:54 | 18.02579 | -76.99053 | 3883 ft | 219 kts | 118° |
| 2026-05-03 21:54 | 18.01904 | -76.97682 | 3595 ft | 205 kts | 115° |
| 2026-05-03 21:54 | 18.01308 | -76.96376 | 3331 ft | 193 kts | 115° |
| 2026-05-03 21:54 | 18.00741 | -76.95115 | 3074 ft | 189 kts | 114° |
| 2026-05-03 21:55 | 18.00191 | -76.93884 | 2835 ft | 183 kts | 114° |
| 2026-05-03 21:55 | 17.99658 | -76.92686 | 2592 ft | 178 kts | 115° |
| 2026-05-03 21:55 | 17.99143 | -76.91526 | 2359 ft | 173 kts | 115° |
| 2026-05-03 21:55 | 17.98640 | -76.90395 | 2130 ft | 168 kts | 116° |
| 2026-05-03 21:56 | 17.98153 | -76.89299 | 1912 ft | 163 kts | 116° |
| 2026-05-03 21:56 | 17.97685 | -76.88246 | 1695 ft | 159 kts | 116° |
| 2026-05-03 21:56 | 17.97223 | -76.87205 | 1487 ft | 154 kts | 116° |
| 2026-05-03 21:56 | 17.96775 | -76.86196 | 1287 ft | 150 kts | 117° |
| 2026-05-03 21:57 | 17.96343 | -76.85224 | 1110 ft | 145 kts | 117° |
| 2026-05-03 21:57 | 17.95915 | -76.84260 | 911 ft | 147 kts | 117° |
| 2026-05-03 21:57 | 17.95434 | -76.83309 | 721 ft | 148 kts | 123° |
| 2026-05-03 21:57 | 17.94948 | -76.82340 | 542 ft | 149 kts | 115° |
| 2026-05-03 21:58 | 17.94584 | -76.81327 | 402 ft | 148 kts | 114° |
| 2026-05-03 21:58 | 17.94190 | -76.80316 | 207 ft | 148 kts | 116° |
| 2026-05-03 21:58 | 17.93794 | -76.79339 | 40 ft | 138 kts | 115° |
| 2026-05-03 21:58 | 17.93475 | -76.78525 | 18 ft | 94 kts | 109° |
| 2026-05-03 21:59 | 17.93323 | -76.78117 | 18 ft | 27 kts | 112° |
| 2026-05-03 21:59 | 17.93264 | -76.77970 | 18 ft | 19 kts | 113° |
| 2026-05-03 21:59 | 17.93225 | -76.77864 | 18 ft | 12 kts | 110° |
| 2026-05-03 21:59 | 17.93208 | -76.77799 | 18 ft | 7 kts | 79° |
| 2026-05-03 22:00 | 17.93233 | -76.77771 | 18 ft | 5 kts | 26° |
| 2026-05-03 22:00 | 17.93260 | -76.77755 | 18 ft | 7 kts | 29° |
| 2026-05-03 22:00 | 17.93294 | -76.77738 | 18 ft | 0 kts | 12° |
| 2026-05-03 22:01 | 17.93304 | -76.77736 | 18 ft | 7 kts | 9° |
| 2026-05-03 22:01 | 17.93354 | -76.77783 | 18 ft | 14 kts | 291° |
| 2026-05-03 22:02 | 17.93392 | -76.77885 | 18 ft | 13 kts | 292° |
| 2026-05-03 22:02 | 17.93416 | -76.77949 | 18 ft | 6 kts | 290° |
| 2026-05-03 22:02 | 17.93439 | -76.78014 | 18 ft | 14 kts | 291° |
| 2026-05-03 22:02 | 17.93469 | -76.78098 | 18 ft | 9 kts | 291° |
| 2026-05-03 22:03 | 17.93492 | -76.78147 | 18 ft | 7 kts | 311° |
| 2026-05-03 22:03 | 17.93545 | -76.78152 | 18 ft | 10 kts | 17° |
| 2026-05-03 22:03 | 17.93620 | -76.78123 | 18 ft | 11 kts | 21° |
| 2026-05-03 22:03 | 17.93660 | -76.78099 | 18 ft | 2 kts | 54° |
| 2026-05-03 22:04 | 17.93661 | -76.78095 | 18 ft | 2 kts | 69° |
| 2026-05-03 22:04 | 17.93654 | -76.78057 | 18 ft | 4 kts | 112° |
| 2026-05-03 22:04 | 17.93651 | -76.78051 | 18 ft | 1 kts | 112° |
| 2026-05-03 22:04 | 17.93646 | -76.78037 | 18 ft | 0 kts | 112° |
| 2026-05-03 22:05 | 17.93645 | -76.78035 | 18 ft | 0 kts | 112° |